createdAt,value
2019-05-03T00:00:12.384Z,29.27
2019-05-03T00:02:26.770Z,29.10
2019-05-03T00:03:06.843Z,28.83
2019-05-03T00:03:39.682Z,29.12
2019-05-03T00:04:13.574Z,29.02
2019-05-03T00:04:48.318Z,29.02
2019-05-03T00:05:29.074Z,28.52
2019-05-03T00:06:04.562Z,28.90
2019-05-03T00:06:37.695Z,28.73
2019-05-03T00:07:12.490Z,28.67
2019-05-03T00:07:45.721Z,28.80
2019-05-03T00:08:18.805Z,28.70
2019-05-03T00:08:52.166Z,28.83
2019-05-03T00:09:25.624Z,28.77
2019-05-03T00:09:58.859Z,29.05
2019-05-03T00:10:36.027Z,28.75
2019-05-03T00:11:09.351Z,28.67
2019-05-03T00:11:42.302Z,28.80
2019-05-03T00:12:15.391Z,28.83
2019-05-03T00:12:48.762Z,28.40
2019-05-03T00:13:21.923Z,28.10
2019-05-03T00:13:56.299Z,28.50
2019-05-03T00:14:29.476Z,28.67
2019-05-03T00:15:14.268Z,28.70
2019-05-03T00:15:56.721Z,28.62
2019-05-03T00:16:32.562Z,28.32
2019-05-03T00:17:05.908Z,28.52
2019-05-03T00:17:38.857Z,28.30
2019-05-03T00:18:13.055Z,28.55
2019-05-03T00:18:46.128Z,28.32
2019-05-03T00:19:19.724Z,28.65
2019-05-03T00:19:53.418Z,28.47
2019-05-03T00:20:26.580Z,28.52
2019-05-03T00:21:02.141Z,28.47
2019-05-03T00:21:35.279Z,29.00
2019-05-03T00:22:08.370Z,28.75
2019-05-03T00:22:41.849Z,28.60
2019-05-03T00:23:15.040Z,28.80
2019-05-03T00:23:48.142Z,28.62
2019-05-03T00:24:22.628Z,28.45
2019-05-03T00:25:04.984Z,28.77
2019-05-03T00:25:32.651Z,28.52
2019-05-03T00:26:05.968Z,28.62
2019-05-03T00:26:39.051Z,29.12
2019-05-03T00:27:12.658Z,28.30
2019-05-03T00:27:45.815Z,28.20
2019-05-03T00:28:18.910Z,29.40
2019-05-03T00:28:52.149Z,28.60
2019-05-03T00:29:25.275Z,28.60
2019-05-03T00:29:58.393Z,28.70
2019-05-03T00:30:31.989Z,28.50
2019-05-03T00:31:06.759Z,28.62
2019-05-03T00:31:39.840Z,28.87
2019-05-03T00:32:13.041Z,28.70
2019-05-03T00:32:46.260Z,28.70
2019-05-03T00:33:19.385Z,28.60
2019-05-03T00:33:57.229Z,28.23
2019-05-03T00:34:36.547Z,28.75
2019-05-03T00:35:13.687Z,28.57
2019-05-03T00:36:02.949Z,28.40
2019-05-03T00:36:41.909Z,29.02
2019-05-03T00:37:16.925Z,28.60
2019-05-03T00:37:52.556Z,28.57
2019-05-03T00:38:25.864Z,28.30
2019-05-03T00:39:12.201Z,28.70
2019-05-03T00:40:04.049Z,28.35
2019-05-03T00:40:37.149Z,28.20
2019-05-03T00:41:12.119Z,28.40
2019-05-03T00:41:45.716Z,28.50
2019-05-03T00:42:18.915Z,28.47
2019-05-03T00:42:51.996Z,28.57
2019-05-03T00:43:25.126Z,28.70
2019-05-03T00:43:58.137Z,28.42
2019-05-03T00:44:31.699Z,28.73
2019-05-03T00:45:07.298Z,28.40
2019-05-03T00:45:42.180Z,28.83
2019-05-03T00:46:15.379Z,28.65
2019-05-03T00:46:48.555Z,28.67
2019-05-03T00:47:22.180Z,28.42
2019-05-03T00:47:55.394Z,28.90
2019-05-03T00:48:30.309Z,28.77
2019-05-03T00:49:03.855Z,28.85
2019-05-03T00:49:37.127Z,28.67
2019-05-03T00:50:11.921Z,28.52
2019-05-03T00:50:45.275Z,28.90
2019-05-03T00:51:18.311Z,28.40
2019-05-03T00:51:51.732Z,28.60
2019-05-03T00:52:24.991Z,28.77
2019-05-03T00:52:58.083Z,28.73
2019-05-03T00:53:31.901Z,28.50
2019-05-03T00:54:05.003Z,28.75
2019-05-03T00:54:38.161Z,28.85
2019-05-03T00:55:17.011Z,28.55
2019-05-03T00:55:46.564Z,28.47
2019-05-03T00:56:21.502Z,28.60
2019-05-03T00:56:54.613Z,28.77
2019-05-03T00:57:28.870Z,28.50
2019-05-03T00:58:02.471Z,28.50
2019-05-03T00:58:49.417Z,28.80
2019-05-03T00:59:23.570Z,28.23
2019-05-03T00:59:56.719Z,28.30
2019-05-03T01:00:32.185Z,28.40
2019-05-03T01:01:05.196Z,28.50
2019-05-03T01:01:38.283Z,28.62
2019-05-03T01:02:11.888Z,28.80
2019-05-03T01:02:44.929Z,28.30
2019-05-03T01:03:17.847Z,28.38
2019-05-03T01:03:52.674Z,28.55
2019-05-03T01:04:25.617Z,28.62
2019-05-03T01:04:58.677Z,28.67
2019-05-03T01:05:33.109Z,28.15
2019-05-03T01:06:06.198Z,28.73
2019-05-03T01:06:39.295Z,28.65
2019-05-03T01:07:12.373Z,28.70
2019-05-03T01:07:45.449Z,28.10
2019-05-03T01:08:18.617Z,28.35
2019-05-03T01:08:52.388Z,28.60
2019-05-03T01:09:26.580Z,28.60
2019-05-03T01:09:59.899Z,28.60
2019-05-03T01:10:34.519Z,28.85
2019-05-03T01:11:08.605Z,28.98
2019-05-03T01:11:41.857Z,28.70
2019-05-03T01:12:15.028Z,28.52
2019-05-03T01:12:52.369Z,28.42
2019-05-03T01:13:25.766Z,28.50
2019-05-03T01:13:58.921Z,28.42
2019-05-03T01:14:32.660Z,28.25
2019-05-03T01:15:09.558Z,28.27
2019-05-03T01:16:08.337Z,28.35
2019-05-03T01:16:42.683Z,28.80
2019-05-03T01:17:15.869Z,28.30
2019-05-03T01:17:49.292Z,28.30
2019-05-03T01:18:22.586Z,28.40
2019-05-03T01:18:55.729Z,28.47
2019-05-03T01:19:28.803Z,28.50
2019-05-03T01:20:02.812Z,28.00
2019-05-03T01:20:36.247Z,28.50
2019-05-03T01:21:09.357Z,28.25
2019-05-03T01:21:42.347Z,28.35
2019-05-03T01:22:15.425Z,28.40
2019-05-03T01:22:48.553Z,28.47
2019-05-03T01:23:21.981Z,28.20
2019-05-03T01:23:56.472Z,28.17
2019-05-03T01:24:29.569Z,27.90
2019-05-03T01:25:03.105Z,28.00
2019-05-03T01:25:36.297Z,27.87
2019-05-03T01:26:09.401Z,28.00
2019-05-03T01:26:42.604Z,28.38
2019-05-03T01:27:16.037Z,27.93
2019-05-03T01:27:49.205Z,27.93
2019-05-03T01:28:22.399Z,27.70
2019-05-03T01:28:55.542Z,28.25
2019-05-03T01:29:28.789Z,28.77
2019-05-03T01:30:02.832Z,27.77
2019-05-03T01:30:37.443Z,27.70
2019-05-03T01:31:11.997Z,27.80
2019-05-03T01:31:45.287Z,27.67
2019-05-03T01:32:18.435Z,27.70
2019-05-03T01:32:52.358Z,27.87
2019-05-03T01:33:25.527Z,27.93
2019-05-03T01:33:58.603Z,27.90
2019-05-03T01:34:32.861Z,28.00
2019-05-03T01:35:06.891Z,27.67
2019-05-03T01:35:40.052Z,27.50
2019-05-03T01:36:13.141Z,27.70
2019-05-03T01:36:46.173Z,28.10
2019-05-03T01:37:19.323Z,28.10
2019-05-03T01:37:52.359Z,27.90
2019-05-03T01:38:25.451Z,27.67
2019-05-03T01:38:59.591Z,27.60
2019-05-03T01:39:32.757Z,27.52
2019-05-03T01:40:06.209Z,28.20
2019-05-03T01:40:39.333Z,27.90
2019-05-03T01:41:12.497Z,27.62
2019-05-03T01:41:47.256Z,28.27
2019-05-03T01:42:22.477Z,27.58
2019-05-03T01:42:55.525Z,27.80
2019-05-03T01:43:28.688Z,27.50
2019-05-03T01:44:02.027Z,27.58
2019-05-03T01:44:35.063Z,27.90
2019-05-03T01:45:08.233Z,27.98
2019-05-03T01:45:42.470Z,27.37
2019-05-03T01:46:15.761Z,27.48
2019-05-03T01:46:51.604Z,27.90
2019-05-03T01:47:33.169Z,27.67
2019-05-03T01:48:16.333Z,27.67
2019-05-03T01:49:07.555Z,28.00
2019-05-03T01:49:52.067Z,27.60
2019-05-03T01:50:43.647Z,27.58
2019-05-03T01:51:32.722Z,27.90
2019-05-03T01:52:22.575Z,28.07
2019-05-03T01:52:56.059Z,27.82
2019-05-03T01:53:29.574Z,27.80
2019-05-03T01:54:02.616Z,27.30
2019-05-03T01:54:35.783Z,27.90
2019-05-03T01:55:09.290Z,27.80
2019-05-03T01:55:52.959Z,27.45
2019-05-03T01:56:25.787Z,27.65
2019-05-03T01:56:59.323Z,27.85
2019-05-03T01:57:32.526Z,27.17
2019-05-03T01:58:07.253Z,27.65
2019-05-03T01:58:41.736Z,27.90
2019-05-03T01:59:14.964Z,27.50
2019-05-03T01:59:48.083Z,27.45
2019-05-03T02:00:25.491Z,27.85
2019-05-03T02:01:06.842Z,27.50
2019-05-03T02:02:12.512Z,27.75
2019-05-03T02:02:53.125Z,27.50
2019-05-03T02:03:32.905Z,27.80
2019-05-03T02:04:14.259Z,27.75
2019-05-03T02:05:11.887Z,27.90
2019-05-03T02:05:52.707Z,27.42
2019-05-03T02:06:26.169Z,27.75
2019-05-03T02:06:59.100Z,27.67
2019-05-03T02:07:32.213Z,28.00
2019-05-03T02:08:05.286Z,27.65
2019-05-03T02:08:38.243Z,27.80
2019-05-03T02:09:12.226Z,27.80
2019-05-03T02:09:45.373Z,27.93
2019-05-03T02:10:19.424Z,28.27
2019-05-03T02:10:52.405Z,28.10
2019-05-03T02:11:25.447Z,27.80
2019-05-03T02:11:58.691Z,27.70
2019-05-03T02:12:32.207Z,27.98
2019-05-03T02:13:05.607Z,27.87
2019-05-03T02:13:38.768Z,27.90
2019-05-03T02:14:12.357Z,27.80
2019-05-03T02:14:45.575Z,27.40
2019-05-03T02:15:18.583Z,27.82
2019-05-03T02:15:52.757Z,27.50
2019-05-03T02:16:26.181Z,27.05
2019-05-03T02:16:59.281Z,27.35
2019-05-03T02:17:32.204Z,27.67
2019-05-03T02:18:05.423Z,28.00
2019-05-03T02:18:39.990Z,27.52
2019-05-03T02:19:13.056Z,27.73
2019-05-03T02:19:46.171Z,28.10
2019-05-03T02:20:19.385Z,27.98
2019-05-03T02:20:52.736Z,27.80
2019-05-03T02:21:27.074Z,27.80
2019-05-03T02:22:00.095Z,27.45
2019-05-03T02:22:33.185Z,28.30
2019-05-03T02:23:06.245Z,28.00
2019-05-03T02:23:39.410Z,27.67
2019-05-03T02:24:13.459Z,27.60
2019-05-03T02:24:46.651Z,27.70
2019-05-03T02:25:21.647Z,27.95
2019-05-03T02:25:58.756Z,27.48
2019-05-03T02:26:31.678Z,27.80
2019-05-03T02:27:05.032Z,27.60
2019-05-03T02:27:38.171Z,28.32
2019-05-03T02:28:12.642Z,27.77
2019-05-03T02:28:45.861Z,27.90
2019-05-03T02:29:19.024Z,27.30
2019-05-03T02:29:52.491Z,27.80
2019-05-03T02:30:25.636Z,27.60
2019-05-03T02:30:58.659Z,27.37
2019-05-03T02:31:32.760Z,27.40
2019-05-03T02:32:06.064Z,27.32
2019-05-03T02:32:39.039Z,27.67
2019-05-03T02:33:13.415Z,27.70
2019-05-03T02:33:46.834Z,27.42
2019-05-03T02:34:20.003Z,28.07
2019-05-03T02:34:53.654Z,27.77
2019-05-03T02:35:26.894Z,27.82
2019-05-03T02:36:03.282Z,27.93
2019-05-03T02:36:35.157Z,27.82
2019-05-03T02:37:08.138Z,27.40
2019-05-03T02:37:43.848Z,27.62
2019-05-03T02:38:17.279Z,27.70
2019-05-03T02:38:53.307Z,27.90
2019-05-03T02:39:25.573Z,27.40
2019-05-03T02:39:58.957Z,27.50
2019-05-03T02:40:33.907Z,27.40
2019-05-03T02:41:07.145Z,27.93
2019-05-03T02:41:40.426Z,27.52
2019-05-03T02:42:16.099Z,27.77
2019-05-03T02:43:09.450Z,27.37
2019-05-03T02:43:46.298Z,27.45
2019-05-03T02:44:21.831Z,27.58
2019-05-03T02:44:55.419Z,27.65
2019-05-03T02:45:29.665Z,27.40
2019-05-03T02:46:25.675Z,27.70
2019-05-03T02:47:27.352Z,27.62
2019-05-03T02:48:07.805Z,27.77
2019-05-03T02:48:48.353Z,26.95
2019-05-03T02:49:31.252Z,27.65
2019-05-03T02:50:11.543Z,27.35
2019-05-03T02:50:45.317Z,28.05
2019-05-03T02:51:18.583Z,27.60
2019-05-03T02:51:51.945Z,27.62
2019-05-03T02:52:36.482Z,27.87
2019-05-03T02:53:10.177Z,27.60
2019-05-03T02:53:45.742Z,27.75
2019-05-03T02:54:19.201Z,27.50
2019-05-03T02:54:52.228Z,27.65
2019-05-03T02:55:26.261Z,27.65
2019-05-03T02:56:13.762Z,27.58
2019-05-03T02:56:35.727Z,27.30
2019-05-03T02:57:09.194Z,27.50
2019-05-03T02:57:46.614Z,27.82
2019-05-03T02:58:20.496Z,27.50
2019-05-03T02:58:55.750Z,27.62
2019-05-03T02:59:28.656Z,27.60
2019-05-03T03:00:07.086Z,27.70
2019-05-03T03:00:59.195Z,27.37
2019-05-03T03:01:32.662Z,27.48
2019-05-03T03:02:06.553Z,27.17
2019-05-03T03:02:40.232Z,27.40
2019-05-03T03:03:16.013Z,27.60
2019-05-03T03:03:49.425Z,27.48
2019-05-03T03:04:22.447Z,27.35
2019-05-03T03:04:56.397Z,27.65
2019-05-03T03:05:29.564Z,27.65
2019-05-03T03:06:06.730Z,27.73
2019-05-03T03:06:45.460Z,27.35
2019-05-03T03:07:19.222Z,27.58
2019-05-03T03:08:01.333Z,27.58
2019-05-03T03:08:36.906Z,27.50
2019-05-03T03:09:10.374Z,27.65
2019-05-03T03:09:45.254Z,27.67
2019-05-03T03:10:19.597Z,27.30
2019-05-03T03:10:55.680Z,27.50
2019-05-03T03:11:29.995Z,27.70
2019-05-03T03:12:06.164Z,27.40
2019-05-03T03:12:40.720Z,27.35
2019-05-03T03:13:16.341Z,27.75
2019-05-03T03:13:51.255Z,27.95
2019-05-03T03:14:26.296Z,27.32
2019-05-03T03:15:01.527Z,27.55
2019-05-03T03:15:38.035Z,27.60
2019-05-03T03:16:11.263Z,27.60
2019-05-03T03:16:49.863Z,27.25
2019-05-03T03:17:26.006Z,27.63
2019-05-03T03:18:00.343Z,27.60
2019-05-03T03:18:36.567Z,27.80
2019-05-03T03:19:15.754Z,27.52
2019-05-03T03:19:49.866Z,27.60
2019-05-03T03:20:25.379Z,27.27
2019-05-03T03:21:07.676Z,27.75
2019-05-03T03:21:46.709Z,27.73
2019-05-03T03:22:20.804Z,27.42
2019-05-03T03:22:56.065Z,27.40
2019-05-03T03:23:40.692Z,27.40
2019-05-03T03:24:18.523Z,27.25
2019-05-03T03:24:57.247Z,27.75
2019-05-03T03:25:36.243Z,27.37
2019-05-03T03:26:15.457Z,27.50
2019-05-03T03:26:50.481Z,27.37
2019-05-03T03:27:25.725Z,27.48
2019-05-03T03:28:05.181Z,27.27
2019-05-03T03:28:39.210Z,27.65
2019-05-03T03:29:16.390Z,27.67
2019-05-03T03:30:29.005Z,27.73
2019-05-03T03:31:51.389Z,27.35
2019-05-03T03:32:37.991Z,27.50
2019-05-03T03:33:17.172Z,27.55
2019-05-03T03:33:47.928Z,27.62
2019-05-03T03:34:28.502Z,27.35
2019-05-03T03:35:21.406Z,27.45
2019-05-03T03:35:57.945Z,27.13
2019-05-03T03:36:48.627Z,27.25
2019-05-03T03:37:10.375Z,27.58
2019-05-03T03:37:41.795Z,27.17
2019-05-03T03:38:15.669Z,27.00
2019-05-03T03:38:49.017Z,27.42
2019-05-03T03:39:22.516Z,27.10
2019-05-03T03:39:56.071Z,27.50
2019-05-03T03:40:30.588Z,27.30
2019-05-03T03:41:05.871Z,27.22
2019-05-03T03:41:38.925Z,27.32
2019-05-03T03:42:15.840Z,27.60
2019-05-03T03:42:49.500Z,27.27
2019-05-03T03:43:25.950Z,26.90
2019-05-03T03:44:01.646Z,27.30
2019-05-03T03:44:36.354Z,27.30
2019-05-03T03:45:10.271Z,27.48
2019-05-03T03:45:45.475Z,27.35
2019-05-03T03:46:21.659Z,27.30
2019-05-03T03:46:56.364Z,27.05
2019-05-03T03:47:31.814Z,27.30
2019-05-03T03:48:06.835Z,27.20
2019-05-03T03:48:40.743Z,27.40
2019-05-03T03:49:15.594Z,27.42
2019-05-03T03:49:50.488Z,27.30
2019-05-03T03:50:25.958Z,27.37
2019-05-03T03:51:00.009Z,26.73
2019-05-03T03:51:35.202Z,27.40
2019-05-03T03:52:10.326Z,27.07
2019-05-03T03:52:45.338Z,26.95
2019-05-03T03:53:30.970Z,26.97
2019-05-03T03:54:06.046Z,27.35
2019-05-03T03:54:42.697Z,26.80
2019-05-03T03:55:16.215Z,27.15
2019-05-03T03:55:56.417Z,27.60
2019-05-03T03:56:31.271Z,27.00
2019-05-03T03:57:08.538Z,27.07
2019-05-03T03:57:42.751Z,26.60
2019-05-03T03:58:22.464Z,27.22
2019-05-03T03:58:51.890Z,26.93
2019-05-03T03:59:26.886Z,26.85
2019-05-03T04:00:01.549Z,26.80
2019-05-03T04:00:36.262Z,26.80
2019-05-03T04:01:09.815Z,27.02
2019-05-03T04:01:45.717Z,26.87
2019-05-03T04:02:19.469Z,26.90
2019-05-03T04:02:55.297Z,26.95
2019-05-03T04:03:28.405Z,27.00
2019-05-03T04:04:01.529Z,27.10
2019-05-03T04:04:35.783Z,27.05
2019-05-03T04:05:15.910Z,27.37
2019-05-03T04:05:49.264Z,27.20
2019-05-03T04:06:26.899Z,27.20
2019-05-03T04:07:01.380Z,26.80
2019-05-03T04:07:36.131Z,27.50
2019-05-03T04:08:10.661Z,27.17
2019-05-03T04:08:45.322Z,27.15
2019-05-03T04:09:19.412Z,27.20
2019-05-03T04:09:52.711Z,27.70
2019-05-03T04:10:26.628Z,27.45
2019-05-03T04:10:59.819Z,27.45
2019-05-03T04:11:35.041Z,27.20
2019-05-03T04:12:08.530Z,27.20
2019-05-03T04:12:45.508Z,27.60
2019-05-03T04:13:20.038Z,27.30
2019-05-03T04:13:55.779Z,27.00
2019-05-03T04:14:36.163Z,27.07
2019-05-03T04:15:25.759Z,27.48
2019-05-03T04:16:29.403Z,27.20
2019-05-03T04:17:26.166Z,26.90
2019-05-03T04:18:26.956Z,27.45
2019-05-03T04:19:07.441Z,26.90
2019-05-03T04:19:41.019Z,27.22
2019-05-03T04:20:16.300Z,26.90
2019-05-03T04:20:49.755Z,27.15
2019-05-03T04:21:25.271Z,27.13
2019-05-03T04:21:58.194Z,27.30
2019-05-03T04:22:31.601Z,27.20
2019-05-03T04:23:09.001Z,27.58
2019-05-03T04:23:45.723Z,27.30
2019-05-03T04:24:18.417Z,26.97
2019-05-03T04:24:55.302Z,27.15
2019-05-03T04:25:28.715Z,27.22
2019-05-03T04:26:01.912Z,27.37
2019-05-03T04:26:35.879Z,27.10
2019-05-03T04:27:18.005Z,27.45
2019-05-03T04:27:45.662Z,27.35
2019-05-03T04:28:19.007Z,27.35
2019-05-03T04:28:55.870Z,27.05
2019-05-03T04:29:27.956Z,27.10
2019-05-03T04:30:01.010Z,27.32
2019-05-03T04:30:36.431Z,27.48
2019-05-03T04:31:09.503Z,27.30
2019-05-03T04:31:45.588Z,26.90
2019-05-03T04:32:17.707Z,27.58
2019-05-03T04:32:50.827Z,27.10
2019-05-03T04:33:26.595Z,27.62
2019-05-03T04:33:58.808Z,27.17
2019-05-03T04:34:31.845Z,27.30
2019-05-03T04:35:05.491Z,27.00
2019-05-03T04:35:38.854Z,26.93
2019-05-03T04:36:12.101Z,27.37
2019-05-03T04:36:46.148Z,27.32
2019-05-03T04:37:19.456Z,26.82
2019-05-03T04:37:52.579Z,27.00
2019-05-03T04:38:26.051Z,26.97
2019-05-03T04:38:59.350Z,26.80
2019-05-03T04:39:32.385Z,26.85
2019-05-03T04:40:06.309Z,27.60
2019-05-03T04:40:39.579Z,27.07
2019-05-03T04:41:12.691Z,27.35
2019-05-03T04:41:45.631Z,27.15
2019-05-03T04:42:18.706Z,27.00
2019-05-03T04:42:51.677Z,27.10
2019-05-03T04:43:26.538Z,27.27
2019-05-03T04:43:59.984Z,27.00
2019-05-03T04:44:35.489Z,27.22
2019-05-03T04:45:08.101Z,27.75
2019-05-03T04:45:41.206Z,27.10
2019-05-03T04:46:18.607Z,27.55
2019-05-03T04:46:55.078Z,27.07
2019-05-03T04:47:26.894Z,27.17
2019-05-03T04:48:00.014Z,27.05
2019-05-03T04:48:35.582Z,27.20
2019-05-03T04:49:08.079Z,27.30
2019-05-03T04:49:41.124Z,27.37
2019-05-03T04:50:16.270Z,27.17
2019-05-03T04:50:49.160Z,27.27
2019-05-03T04:51:22.232Z,27.30
2019-05-03T04:51:56.490Z,27.35
2019-05-03T04:52:29.501Z,27.27
2019-05-03T04:53:05.541Z,27.75
2019-05-03T04:53:40.822Z,27.52
2019-05-03T04:54:40.653Z,27.27
2019-05-03T04:55:16.004Z,27.37
2019-05-03T04:55:48.763Z,27.00
2019-05-03T04:56:21.804Z,27.15
2019-05-03T04:56:56.085Z,27.45
2019-05-03T04:57:39.785Z,27.40
2019-05-03T04:58:04.915Z,27.45
2019-05-03T04:58:38.194Z,26.82
2019-05-03T04:59:12.363Z,27.30
2019-05-03T04:59:45.474Z,27.70
2019-05-03T05:00:18.584Z,27.27
2019-05-03T05:00:51.619Z,27.55
2019-05-03T05:01:26.135Z,27.73
2019-05-03T05:02:00.453Z,27.52
2019-05-03T05:02:35.413Z,27.50
2019-05-03T05:03:08.567Z,27.20
2019-05-03T05:03:41.745Z,27.27
2019-05-03T05:04:16.052Z,27.17
2019-05-03T05:04:49.582Z,27.30
2019-05-03T05:05:22.604Z,27.80
2019-05-03T05:05:59.262Z,27.30
2019-05-03T05:06:30.856Z,27.40
2019-05-03T05:07:06.344Z,27.10
2019-05-03T05:07:39.410Z,27.10
2019-05-03T05:08:12.522Z,27.20
2019-05-03T05:08:45.990Z,27.45
2019-05-03T05:09:19.548Z,27.42
2019-05-03T05:09:52.542Z,27.35
2019-05-03T05:10:26.510Z,27.20
2019-05-03T05:10:59.731Z,27.15
2019-05-03T05:11:35.037Z,27.60
2019-05-03T05:12:08.017Z,27.20
2019-05-03T05:12:40.963Z,27.80
2019-05-03T05:13:15.793Z,27.07
2019-05-03T05:13:48.774Z,27.52
2019-05-03T05:14:21.877Z,27.40
2019-05-03T05:14:56.391Z,27.60
2019-05-03T05:15:29.858Z,27.02
2019-05-03T05:16:05.666Z,27.23
2019-05-03T05:16:39.648Z,27.48
2019-05-03T05:17:17.043Z,27.45
2019-05-03T05:18:09.569Z,27.22
2019-05-03T05:18:48.216Z,27.30
2019-05-03T05:19:30.401Z,27.40
2019-05-03T05:20:14.537Z,27.70
2019-05-03T05:20:55.479Z,27.10
2019-05-03T05:21:35.672Z,27.25
2019-05-03T05:22:09.718Z,27.42
2019-05-03T05:22:42.798Z,27.40
2019-05-03T05:23:15.864Z,27.25
2019-05-03T05:24:05.290Z,27.50
2019-05-03T05:24:39.056Z,27.55
2019-05-03T05:25:15.697Z,27.67
2019-05-03T05:25:55.017Z,27.40
2019-05-03T05:26:44.627Z,26.95
2019-05-03T05:27:30.354Z,27.45
2019-05-03T05:28:19.008Z,27.30
2019-05-03T05:28:55.709Z,27.10
2019-05-03T05:29:29.992Z,27.30
2019-05-03T05:30:05.146Z,27.20
2019-05-03T05:30:38.146Z,27.13
2019-05-03T05:31:11.236Z,27.17
2019-05-03T05:31:44.626Z,27.58
2019-05-03T05:32:17.836Z,27.40
2019-05-03T05:32:50.936Z,27.60
2019-05-03T05:33:25.168Z,27.60
2019-05-03T05:33:58.497Z,27.67
2019-05-03T05:34:31.635Z,27.35
2019-05-03T05:35:05.349Z,27.30
2019-05-03T05:35:38.296Z,27.30
2019-05-03T05:36:11.434Z,27.35
2019-05-03T05:36:45.103Z,27.60
2019-05-03T05:37:18.404Z,27.20
2019-05-03T05:37:51.386Z,27.48
2019-05-03T05:38:27.882Z,27.37
2019-05-03T05:39:00.830Z,27.17
2019-05-03T05:39:35.566Z,27.07
2019-05-03T05:40:09.502Z,27.30
2019-05-03T05:40:45.094Z,27.93
2019-05-03T05:41:17.484Z,27.42
2019-05-03T05:41:50.594Z,27.55
2019-05-03T05:42:25.081Z,27.65
2019-05-03T05:42:58.242Z,27.30
2019-05-03T05:43:31.191Z,27.50
2019-05-03T05:44:05.518Z,27.70
2019-05-03T05:44:38.526Z,27.80
2019-05-03T05:45:11.484Z,27.30
2019-05-03T05:45:44.997Z,27.75
2019-05-03T05:46:19.606Z,27.50
2019-05-03T05:47:06.346Z,27.62
2019-05-03T05:47:44.897Z,27.50
2019-05-03T05:48:24.670Z,27.70
2019-05-03T05:48:58.858Z,27.55
2019-05-03T05:49:57.069Z,27.67
2019-05-03T05:50:34.625Z,27.48
2019-05-03T05:51:08.052Z,27.32
2019-05-03T05:51:40.988Z,27.73
2019-05-03T05:52:15.474Z,27.30
2019-05-03T05:52:48.956Z,27.80
2019-05-03T05:53:22.090Z,27.65
2019-05-03T05:53:56.678Z,27.80
2019-05-03T05:54:29.722Z,27.70
2019-05-03T05:55:21.970Z,27.65
2019-05-03T05:56:17.329Z,28.05
2019-05-03T05:57:01.895Z,27.87
2019-05-03T05:57:44.947Z,27.80
2019-05-03T05:58:25.618Z,28.07
2019-05-03T05:59:14.682Z,27.52
2019-05-03T05:59:56.031Z,27.90
2019-05-03T06:00:35.940Z,27.50
2019-05-03T06:01:16.272Z,27.48
2019-05-03T06:01:55.571Z,27.85
2019-05-03T06:02:28.721Z,27.50
2019-05-03T06:03:01.916Z,27.55
2019-05-03T06:03:35.001Z,27.50
2019-05-03T06:04:10.033Z,27.73
2019-05-03T06:04:45.154Z,27.98
2019-05-03T06:05:18.143Z,27.70
2019-05-03T06:05:51.254Z,27.98
2019-05-03T06:06:40.508Z,27.82
2019-05-03T06:07:24.858Z,28.83
2019-05-03T06:08:15.158Z,27.52
2019-05-03T06:08:54.748Z,27.98
2019-05-03T06:09:44.777Z,28.00
2019-05-03T06:10:25.580Z,27.70
2019-05-03T06:11:20.144Z,27.75
2019-05-03T06:11:57.517Z,28.15
2019-05-03T06:12:54.543Z,27.65
2019-05-03T06:13:36.051Z,27.40
2019-05-03T06:14:15.315Z,27.60
2019-05-03T06:14:55.404Z,27.87
2019-05-03T06:15:37.976Z,27.45
2019-05-03T06:16:16.212Z,28.10
2019-05-03T06:17:09.038Z,27.98
2019-05-03T06:17:47.405Z,27.65
2019-05-03T06:18:28.468Z,27.82
2019-05-03T06:19:07.548Z,27.80
2019-05-03T06:20:01.280Z,28.02
2019-05-03T06:21:00.238Z,27.77
2019-05-03T06:21:38.356Z,27.82
2019-05-03T06:22:36.690Z,28.00
2019-05-03T06:23:22.060Z,27.70
2019-05-03T06:24:04.359Z,27.67
2019-05-03T06:24:41.578Z,27.82
2019-05-03T06:25:26.587Z,27.90
2019-05-03T06:26:00.823Z,27.85
2019-05-03T06:26:34.838Z,27.62
2019-05-03T06:27:15.287Z,28.05
2019-05-03T06:27:48.348Z,27.90
2019-05-03T06:28:27.465Z,27.58
2019-05-03T06:29:00.602Z,27.70
2019-05-03T06:29:35.182Z,27.98
2019-05-03T06:30:19.123Z,27.77
2019-05-03T06:31:20.191Z,27.85
2019-05-03T06:32:00.897Z,27.62
2019-05-03T06:32:36.293Z,27.30
2019-05-03T06:33:10.324Z,27.65
2019-05-03T06:33:45.049Z,27.70
2019-05-03T06:34:18.272Z,27.75
2019-05-03T06:34:51.345Z,27.52
2019-05-03T06:35:24.492Z,27.60
2019-05-03T06:35:57.617Z,27.40
2019-05-03T06:36:30.780Z,27.75
2019-05-03T06:37:08.448Z,28.02
2019-05-03T06:37:43.273Z,27.60
2019-05-03T06:38:16.412Z,27.30
2019-05-03T06:38:52.152Z,27.62
2019-05-03T06:39:25.234Z,27.60
2019-05-03T06:39:58.266Z,27.67
2019-05-03T06:40:31.318Z,27.73
2019-05-03T06:41:05.227Z,27.73
2019-05-03T06:41:38.243Z,27.80
2019-05-03T06:42:16.034Z,27.60
2019-05-03T06:42:54.601Z,27.80
2019-05-03T06:43:24.285Z,27.80
2019-05-03T06:43:57.171Z,27.73
2019-05-03T06:44:30.098Z,27.75
2019-05-03T06:45:08.287Z,27.65
2019-05-03T06:45:41.111Z,27.50
2019-05-03T06:46:16.413Z,27.77
2019-05-03T06:46:49.213Z,27.70
2019-05-03T06:47:22.312Z,27.50
2019-05-03T06:47:56.918Z,27.45
2019-05-03T06:48:32.017Z,27.37
2019-05-03T06:49:06.506Z,27.40
2019-05-03T06:49:44.805Z,27.80
2019-05-03T06:50:19.509Z,27.62
2019-05-03T06:50:49.908Z,27.40
2019-05-03T06:51:24.741Z,27.90
2019-05-03T06:51:57.904Z,27.65
2019-05-03T06:52:30.922Z,27.75
2019-05-03T06:53:05.933Z,27.77
2019-05-03T06:53:50.500Z,27.80
2019-05-03T06:54:26.920Z,28.00
2019-05-03T06:55:00.414Z,28.23
2019-05-03T06:55:31.540Z,27.85
2019-05-03T06:56:04.706Z,27.65
2019-05-03T06:56:37.874Z,27.73
2019-05-03T06:57:14.673Z,28.17
2019-05-03T06:57:49.520Z,27.60
2019-05-03T06:58:31.318Z,28.17
2019-05-03T06:58:57.732Z,27.80
2019-05-03T06:59:48.190Z,27.98
2019-05-03T07:00:41.152Z,27.82
2019-05-03T07:01:29.502Z,27.70
2019-05-03T07:02:22.374Z,28.00
2019-05-03T07:03:15.210Z,27.90
2019-05-03T07:03:56.886Z,28.17
2019-05-03T07:04:34.742Z,27.85
2019-05-03T07:05:15.268Z,28.00
2019-05-03T07:06:06.899Z,28.17
2019-05-03T07:06:55.154Z,27.98
2019-05-03T07:07:51.140Z,27.70
2019-05-03T07:08:47.290Z,28.05
2019-05-03T07:09:37.962Z,27.80
2019-05-03T07:10:26.690Z,28.20
2019-05-03T07:11:01.124Z,28.20
2019-05-03T07:11:34.840Z,28.00
2019-05-03T07:12:08.108Z,27.95
2019-05-03T07:12:57.304Z,28.25
2019-05-03T07:13:31.594Z,28.32
2019-05-03T07:14:05.245Z,28.60
2019-05-03T07:14:38.748Z,28.50
2019-05-03T07:15:14.434Z,28.30
2019-05-03T07:15:47.188Z,28.38
2019-05-03T07:16:20.292Z,27.65
2019-05-03T07:16:55.277Z,27.80
2019-05-03T07:17:29.069Z,28.30
2019-05-03T07:18:02.286Z,28.10
2019-05-03T07:18:36.275Z,28.23
2019-05-03T07:19:09.720Z,28.32
2019-05-03T07:19:42.636Z,27.93
2019-05-03T07:20:16.948Z,27.85
2019-05-03T07:20:57.042Z,28.20
2019-05-03T07:21:30.422Z,28.32
2019-05-03T07:22:04.975Z,28.07
2019-05-03T07:22:38.282Z,28.52
2019-05-03T07:23:11.428Z,28.15
2019-05-03T07:23:48.073Z,28.10
2019-05-03T07:24:21.226Z,28.27
2019-05-03T07:24:55.364Z,28.12
2019-05-03T07:25:28.560Z,28.37
2019-05-03T07:26:01.762Z,28.83
2019-05-03T07:26:34.756Z,28.45
2019-05-03T07:27:07.863Z,28.30
2019-05-03T07:27:41.049Z,27.93
2019-05-03T07:28:14.930Z,28.60
2019-05-03T07:28:50.961Z,28.50
2019-05-03T07:29:25.471Z,28.55
2019-05-03T07:29:58.897Z,28.52
2019-05-03T07:30:34.579Z,28.50
2019-05-03T07:31:06.846Z,28.23
2019-05-03T07:31:39.920Z,28.50
2019-05-03T07:32:13.104Z,28.27
2019-05-03T07:32:50.184Z,28.07
2019-05-03T07:33:28.917Z,27.90
2019-05-03T07:34:02.054Z,28.40
2019-05-03T07:34:35.315Z,28.55
2019-05-03T07:35:08.733Z,28.50
2019-05-03T07:35:41.738Z,28.47
2019-05-03T07:36:15.420Z,28.38
2019-05-03T07:36:48.705Z,28.47
2019-05-03T07:37:21.622Z,28.17
2019-05-03T07:37:55.369Z,28.20
2019-05-03T07:38:28.665Z,28.17
2019-05-03T07:39:01.742Z,28.23
2019-05-03T07:39:36.680Z,27.95
2019-05-03T07:40:11.099Z,28.10
2019-05-03T07:40:44.644Z,28.85
2019-05-03T07:41:17.704Z,28.30
2019-05-03T07:41:50.742Z,28.30
2019-05-03T07:42:25.640Z,28.27
2019-05-03T07:42:58.794Z,28.30
2019-05-03T07:43:33.490Z,27.90
2019-05-03T07:44:06.508Z,28.42
2019-05-03T07:44:39.648Z,27.80
2019-05-03T07:45:14.913Z,28.10
2019-05-03T07:45:48.212Z,27.80
2019-05-03T07:46:24.784Z,27.93
2019-05-03T07:46:58.027Z,28.15